Time;durP1;ratioP1;P1;durP2;ratioP2;P2;SDS_P1;SDS_P2;PMS_P1;PMS_P2;Temp;Humidity;BMP_temperature;BMP_pressure;BME280_temperature;BME280_humidity;BME280_pressure;Samples;Min_cycle;Max_cycle;Signal;HPM_P1;HPM_P2
2022/12/25 00:00:53;;;;;;;5.40;4.07;;;;;;;10.89;89.19;94958.22;5131967;27;20196;-47
2022/12/25 00:03:20;;;;;;;4.77;3.73;;;;;;;10.89;89.20;94958.22;5132805;27;20184;-48
2022/12/25 00:05:47;;;;;;;4.10;3.67;;;;;;;10.83;89.12;94956.19;5132426;27;20196;-46
2022/12/25 00:08:15;;;;;;;4.10;3.70;;;;;;;10.84;89.39;94966.31;5132315;27;20253;-46
2022/12/25 00:10:42;;;;;;;4.43;4.00;;;;;;;10.88;89.32;94972.78;5132580;27;20272;-46
2022/12/25 00:13:08;;;;;;;3.50;3.20;;;;;;;10.88;89.28;94979.59;5132511;27;20192;-46
2022/12/25 00:15:38;;;;;;;4.10;3.70;;;;;;;10.88;89.42;94983.00;5132156;27;20276;-46
2022/12/25 00:18:05;;;;;;;4.17;3.77;;;;;;;10.87;89.56;94983.94;5131966;27;20195;-46
2022/12/25 00:20:32;;;;;;;4.13;3.73;;;;;;;10.88;89.44;94977.06;5131369;27;20188;-46
2022/12/25 00:22:59;;;;;;;3.77;3.40;;;;;;;10.88;89.45;94980.44;5131733;27;20337;-45
2022/12/25 00:25:27;;;;;;;4.93;3.60;;;;;;;10.87;89.30;94973.69;5131586;27;20215;-43
2022/12/25 00:27:53;;;;;;;5.13;4.13;;;;;;;10.89;89.51;94976.13;5131767;27;20180;-46
2022/12/25 00:30:20;;;;;;;3.90;3.60;;;;;;;10.89;89.61;94976.94;5132149;27;20220;-44
2022/12/25 00:32:47;;;;;;;3.90;3.50;;;;;;;10.89;89.47;94983.81;5132608;27;20196;-44
2022/12/25 00:35:14;;;;;;;4.37;3.97;;;;;;;10.89;89.70;94982.06;5134081;27;20245;-48
2022/12/25 00:37:41;;;;;;;4.73;4.07;;;;;;;10.90;89.67;94983.66;5131435;27;20626;-45
2022/12/25 00:40:09;;;;;;;4.37;3.80;;;;;;;10.75;89.65;94967.91;5131257;27;20730;-47
2022/12/25 00:42:37;;;;;;;4.97;3.80;;;;;;;10.90;89.90;94993.09;5131614;27;20200;-48
2022/12/25 00:45:04;;;;;;;4.00;3.50;;;;;;;10.89;89.91;94989.72;5130918;27;20193;-45
2022/12/25 00:47:31;;;;;;;4.67;3.97;;;;;;;10.90;89.84;95001.56;5130582;27;20275;-50
2022/12/25 00:49:58;;;;;;;5.37;4.23;;;;;;;10.89;89.75;94994.84;5131126;27;20591;-48
2022/12/25 00:52:24;;;;;;;3.93;3.60;;;;;;;10.89;89.82;94999.16;5130863;27;20217;-50
2022/12/25 00:54:51;;;;;;;3.97;3.33;;;;;;;10.89;89.77;95004.28;5130521;27;20633;-49
2022/12/25 00:57:18;;;;;;;4.27;3.63;;;;;;;10.85;89.81;95001.16;5130599;27;20188;-48
2022/12/25 00:59:46;;;;;;;3.97;3.63;;;;;;;10.88;89.95;95007.75;5130598;27;20237;-47
2022/12/25 01:02:25;;;;;;;4.73;3.63;;;;;;;10.85;89.85;95001.16;5122545;27;20657;-51
2022/12/25 01:04:54;;;;;;;5.50;3.90;;;;;;;10.85;89.88;95002.91;5110425;28;20185;-50
2022/12/25 01:07:22;;;;;;;4.20;3.70;;;;;;;10.82;89.91;94998.88;5110599;28;20262;-47
2022/12/25 01:12:36;;;;;;;4.00;3.60;;;;;;;10.81;90.02;95002.38;5110208;28;20188;-47
2022/12/25 01:15:06;;;;;;;4.00;3.60;;;;;;;10.80;89.87;94998.19;5118283;27;20733;-47
2022/12/25 01:17:33;;;;;;;6.33;3.90;;;;;;;10.80;89.70;95006.69;5130714;27;20192;-49
2022/12/25 01:20:00;;;;;;;3.60;3.30;;;;;;;10.76;89.84;95001.97;5136108;27;20635;-45
2022/12/25 01:22:27;;;;;;;3.83;3.43;;;;;;;10.79;89.89;95009.34;5132289;27;20192;-48
2022/12/25 01:24:54;;;;;;;3.87;3.57;;;;;;;10.79;89.87;95006.78;5130387;27;20199;-45
2022/12/25 01:27:20;;;;;;;3.80;3.47;;;;;;;10.79;89.80;95001.69;5130083;27;20188;-47
2022/12/25 01:29:47;;;;;;;4.20;3.80;;;;;;;10.77;89.74;95003.56;5130037;27;20220;-55
2022/12/25 01:32:19;;;;;;;3.70;3.40;;;;;;;10.75;89.63;94998.59;5131812;27;20199;-55
2022/12/25 01:34:45;;;;;;;4.47;3.30;;;;;;;10.79;89.83;95002.50;5131128;27;20196;-47
2022/12/25 01:37:12;;;;;;;3.40;3.10;;;;;;;10.78;89.80;95003.44;5130425;27;20268;-47
2022/12/25 01:39:39;;;;;;;5.27;3.53;;;;;;;10.79;89.74;94997.41;5129995;27;20296;-44
2022/12/25 01:42:06;;;;;;;3.97;3.60;;;;;;;10.79;89.92;95001.69;5130078;27;20196;-46
2022/12/25 01:45:27;;;;;;;3.40;3.10;;;;;;;10.79;90.03;94997.41;5129808;27;20180;-45
2022/12/25 01:47:55;;;;;;;3.77;3.43;;;;;;;10.77;89.97;94995.91;5130559;27;20203;-45
2022/12/25 01:50:22;;;;;;;4.13;3.20;;;;;;;10.74;90.00;94991.03;5130344;28;20215;-46
2022/12/25 01:52:50;;;;;;;3.50;3.20;;;;;;;10.77;89.32;95004.38;5130255;28;20193;-44
2022/12/25 01:55:17;;;;;;;5.27;4.00;;;;;;;10.74;90.08;94994.41;5130281;28;20200;-46
2022/12/25 01:57:44;;;;;;;3.83;3.50;;;;;;;10.74;89.96;94998.72;5130246;28;20261;-48
2022/12/25 02:00:13;;;;;;;3.80;3.47;;;;;;;10.77;90.07;95001.00;5129969;28;20208;-46
2022/12/25 02:02:41;;;;;;;3.67;3.37;;;;;;;10.75;90.04;95005.44;5129984;28;20607;-45
2022/12/25 02:05:16;;;;;;;4.63;3.63;;;;;;;10.76;89.97;95004.53;5130481;28;20635;-45
2022/12/25 02:07:44;;;;;;;3.83;3.47;;;;;;;10.76;89.99;95015.56;5130230;28;20187;-46
2022/12/25 02:10:12;;;;;;;4.00;3.70;;;;;;;10.74;89.87;95009.75;5129721;28;20227;-45
2022/12/25 02:12:40;;;;;;;3.17;2.97;;;;;;;10.68;89.90;95005.16;5130011;28;20185;-47
2022/12/25 02:15:11;;;;;;;3.80;3.50;;;;;;;10.71;89.87;95004.09;5129693;28;20195;-46
2022/12/25 02:17:44;;;;;;;3.43;3.13;;;;;;;10.72;89.77;95014.19;5129771;28;20188;-46
2022/12/25 02:20:33;;;;;;;3.07;2.77;;;;;;;10.71;89.96;95006.66;5129775;28;20196;-47
2022/12/25 02:23:14;;;;;;;3.67;3.13;;;;;;;10.66;89.70;94998.56;5130201;28;20203;-46
2022/12/25 02:25:51;;;;;;;3.80;3.50;;;;;;;10.67;89.83;94998.44;5129790;28;20181;-47
2022/12/25 02:28:25;;;;;;;3.40;3.10;;;;;;;10.66;90.10;95004.47;5129297;28;20540;-47
2022/12/25 02:30:56;;;;;;;3.60;3.27;;;;;;;10.67;89.84;95002.75;5129903;28;20216;-49
2022/12/25 02:36:21;;;;;;;3.03;2.83;;;;;;;10.65;89.92;95007.97;5129910;28;20195;-47
2022/12/25 02:41:41;;;;;;;3.40;3.10;;;;;;;10.61;89.92;94998.94;5133213;27;20283;-47
2022/12/25 03:06:45;;;;;;;3.10;2.90;;;;;;;10.55;89.74;95014.81;5069710;28;20663;-46
2022/12/25 03:12:11;;;;;;;3.30;3.00;;;;;;;10.53;89.64;95020.06;5069291;28;20221;-45
2022/12/25 03:17:25;;;;;;;3.27;2.97;;;;;;;10.51;89.73;95033.91;5069427;28;20236;-44
2022/12/25 03:28:06;;;;;;;3.30;3.00;;;;;;;10.46;89.46;95047.09;5069173;28;20279;-45
2022/12/25 03:33:39;;;;;;;3.93;3.20;;;;;;;10.44;89.74;95043.03;5069319;28;20713;-47
2022/12/25 03:36:11;;;;;;;3.20;2.97;;;;;;;10.42;89.39;95038.06;5069299;28;20625;-45
2022/12/25 04:37:21;;;;;;;4.63;3.00;;;;;;;10.15;89.12;95092.25;4855946;29;20346;-48
2022/12/25 04:39:50;;;;;;;3.67;2.87;;;;;;;10.23;89.21;95107.75;4855632;29;20799;-48
2022/12/25 04:42:17;;;;;;;3.80;3.40;;;;;;;10.23;89.68;95109.47;4855534;29;20197;-48
2022/12/25 04:44:43;;;;;;;3.97;3.40;;;;;;;10.20;89.39;95113.13;4905787;29;20203;-45
2022/12/25 04:47:10;;;;;;;3.73;3.00;;;;;;;10.19;88.99;95121.72;4911751;29;20203;-47
2022/12/25 04:49:37;;;;;;;3.67;3.37;;;;;;;10.22;89.21;95130.88;4911728;29;20204;-46
2022/12/25 04:52:04;;;;;;;4.20;3.17;;;;;;;10.21;89.18;95131.81;4935379;29;20395;-46
2022/12/25 04:54:31;;;;;;;3.70;3.40;;;;;;;10.18;89.40;95122.63;4962236;28;20220;-48
2022/12/25 04:56:59;;;;;;;3.97;3.30;;;;;;;10.19;89.18;95126.00;4968894;28;20198;-44
2022/12/25 04:59:26;;;;;;;3.10;2.80;;;;;;;10.13;89.13;95122.19;4968565;28;20224;-46
2022/12/25 05:01:52;;;;;;;3.60;3.30;;;;;;;10.17;89.37;95136.34;5042045;28;20195;-46
2022/12/25 05:04:19;;;;;;;4.03;3.60;;;;;;;10.15;89.12;95132.31;5047598;28;20194;-48
2022/12/25 05:06:46;;;;;;;3.17;2.97;;;;;;;10.13;89.06;95129.06;5047143;28;20202;-44
2022/12/25 05:09:13;;;;;;;3.47;3.17;;;;;;;10.12;89.16;95122.34;5112854;27;20192;-45
2022/12/25 05:11:39;;;;;;;3.40;3.10;;;;;;;10.12;89.03;95125.69;5130259;27;20212;-46
2022/12/25 05:14:08;;;;;;;3.37;3.07;;;;;;;10.11;89.33;95133.50;5130574;27;20188;-49
2022/12/25 05:16:34;;;;;;;3.57;3.27;;;;;;;10.09;89.14;95131.06;5130789;27;20228;-46
2022/12/25 05:19:01;;;;;;;3.40;3.10;;;;;;;10.08;89.21;95136.28;5130942;27;20191;-47
2022/12/25 05:21:28;;;;;;;3.73;3.43;;;;;;;10.07;89.15;95130.38;5130652;27;20192;-46
2022/12/25 05:23:55;;;;;;;3.80;3.47;;;;;;;9.95;89.24;95110.91;5130370;27;20199;-47
2022/12/25 05:26:24;;;;;;;3.00;2.80;;;;;;;10.01;89.34;95130.84;5129755;27;20180;-48
2022/12/25 05:28:51;;;;;;;4.00;3.60;;;;;;;10.03;89.31;95131.56;5130513;27;20189;-48
2022/12/25 05:31:20;;;;;;;4.57;3.53;;;;;;;10.01;89.27;95135.97;5130381;27;20615;-48
2022/12/25 05:33:50;;;;;;;3.30;3.00;;;;;;;10.03;89.22;95144.34;5130571;27;20206;-48
2022/12/25 05:36:17;;;;;;;4.03;3.17;;;;;;;9.99;89.08;95138.66;5130171;27;20279;-47
2022/12/25 05:38:43;;;;;;;4.20;3.30;;;;;;;10.01;89.11;95147.00;5129866;27;20216;-48
2022/12/25 05:41:10;;;;;;;3.63;2.87;;;;;;;10.03;89.20;95146.88;5130637;27;20180;-49
2022/12/25 05:43:37;;;;;;;3.43;3.13;;;;;;;10.03;89.28;95144.34;5130657;27;20189;-45
2022/12/25 05:46:06;;;;;;;3.27;2.97;;;;;;;10.03;89.34;95144.34;5130512;27;20179;-45
2022/12/25 05:48:38;;;;;;;3.53;3.23;;;;;;;9.96;89.12;95130.41;5135759;27;20207;-46
2022/12/25 05:51:07;;;;;;;4.10;3.60;;;;;;;10.04;89.14;95156.97;5131383;27;20215;-44
2022/12/25 05:53:35;;;;;;;3.80;3.47;;;;;;;10.01;88.92;95141.06;5130676;28;20192;-44
2022/12/25 05:56:02;;;;;;;3.97;3.03;;;;;;;10.08;88.97;95151.63;5132117;28;20185;-47
2022/12/25 05:58:30;;;;;;;3.83;3.20;;;;;;;10.08;89.22;95160.09;5131385;28;20208;-45
2022/12/25 06:00:57;;;;;;;3.60;3.30;;;;;;;10.09;88.97;95161.72;5130712;28;20624;-47
2022/12/25 06:03:24;;;;;;;3.10;2.80;;;;;;;10.12;88.97;95160.66;5130195;28;20291;-47
2022/12/25 06:05:52;;;;;;;3.30;3.00;;;;;;;10.10;88.98;95168.44;5129174;28;20189;-47
2022/12/25 06:08:19;;;;;;;3.47;3.10;;;;;;;10.11;88.96;95167.53;5129935;28;20180;-44
2022/12/25 06:10:46;;;;;;;3.43;3.07;;;;;;;10.13;88.96;95162.28;5130105;28;20180;-47
2022/12/25 06:13:13;;;;;;;3.43;3.13;;;;;;;10.18;88.78;95168.63;5131758;27;20210;-45
2022/12/25 06:15:40;;;;;;;3.43;2.77;;;;;;;10.21;88.90;95170.97;5133243;27;20742;-46
2022/12/25 06:18:07;;;;;;;3.20;2.90;;;;;;;10.25;88.95;95174.13;5113632;28;20188;-44
2022/12/25 06:20:34;;;;;;;4.43;3.10;;;;;;;10.27;88.73;95182.44;5112908;28;20189;-45
2022/12/25 06:23:03;;;;;;;3.07;2.73;;;;;;;10.32;88.91;95182.06;5116286;27;20188;-46
2022/12/25 06:25:30;;;;;;;3.03;2.73;;;;;;;10.35;88.55;95184.41;5133854;27;20207;-46
2022/12/25 06:27:56;;;;;;;5.00;3.07;;;;;;;10.59;87.99;95186.72;5134050;27;20241;-45
2022/12/25 06:30:23;;;;;;;3.07;2.83;;;;;;;10.88;86.65;95185.13;5133712;27;20664;-46
2022/12/25 06:32:50;;;;;;;2.87;2.67;;;;;;;11.23;86.03;95182.19;5133414;27;20703;-44
2022/12/25 06:35:17;;;;;;;3.17;2.87;;;;;;;11.65;86.36;95194.81;5133870;27;20191;-48
2022/12/25 06:37:44;;;;;;;2.87;2.67;;;;;;;12.12;87.09;95191.66;5133178;27;20226;-49
2022/12/25 06:40:13;;;;;;;4.37;2.90;;;;;;;12.58;88.45;95196.09;5133897;27;20571;-46
2022/12/25 06:42:39;;;;;;;7.03;3.17;;;;;;;13.04;89.51;95204.78;5133345;27;20231;-44
2022/12/25 06:45:07;;;;;;;3.20;2.90;;;;;;;13.51;90.40;95197.88;5133250;27;20567;-50
2022/12/25 06:47:34;;;;;;;4.87;3.17;;;;;;;14.01;91.37;95217.19;5132819;27;20200;-51
2022/12/25 06:50:01;;;;;;;6.13;2.57;;;;;;;14.65;97.14;95218.75;5133302;27;20596;-48
2022/12/25 06:52:27;;;;;;;9.13;3.20;;;;;;;15.59;97.01;95215.41;5132943;27;20205;-50
2022/12/25 06:54:54;;;;;;;9.67;2.40;;;;;;;16.53;93.31;95222.84;5133914;27;20188;-47
2022/12/25 06:57:22;;;;;;;6.40;2.27;;;;;;;17.38;89.27;95219.06;5132823;27;20188;-45
2022/12/25 06:59:49;;;;;;;2.40;1.90;;;;;;;18.13;86.28;95229.75;5133164;27;20196;-47
2022/12/25 07:02:19;;;;;;;14.13;2.87;;;;;;;18.77;83.59;95219.94;5133887;27;20185;-48
2022/12/25 07:04:46;;;;;;;4.57;2.17;;;;;;;19.35;79.88;95233.16;5133136;27;20702;-47
2022/12/25 07:07:14;;;;;;;3.93;2.00;;;;;;;19.73;75.94;95230.47;5133638;27;20177;-45
2022/12/25 07:09:41;;;;;;;2.30;1.90;;;;;;;20.24;71.23;95248.66;5116005;27;20978;-46
2022/12/25 07:12:15;;;;;;;5.50;2.40;;;;;;;20.66;69.03;95239.31;5126323;27;20306;-47
2022/12/25 07:14:44;;;;;;;3.00;1.90;;;;;;;21.00;67.24;95249.00;5112174;27;20683;-50
2022/12/25 07:17:11;;;;;;;2.93;1.80;;;;;;;21.28;65.38;95252.38;5130590;27;20218;-48
2022/12/25 07:19:38;;;;;;;2.28;1.95;;;;;;;21.54;64.27;95243.16;5130535;27;20553;-50
2022/12/25 07:22:05;;;;;;;3.40;1.85;;;;;;;21.83;63.06;95257.75;5129633;27;20252;-48
2022/12/25 07:24:31;;;;;;;3.35;1.98;;;;;;;22.05;62.08;95259.22;5129726;27;20196;-49
2022/12/25 07:26:59;;;;;;;3.83;1.65;;;;;;;22.25;61.35;95261.94;5133780;27;20261;-47
2022/12/25 07:29:25;;;;;;;2.72;1.63;;;;;;;22.41;60.52;95254.75;5131115;27;20255;-49
2022/12/25 07:31:53;;;;;;;2.00;1.60;;;;;;;22.63;59.68;95263.25;5132045;27;20298;-49
2022/12/25 07:34:21;;;;;;;2.47;1.77;;;;;;;22.76;59.65;95264.06;5129860;27;20570;-47
2022/12/25 07:36:48;;;;;;;1.98;1.77;;;;;;;22.91;59.15;95276.13;5131355;27;20195;-46
2022/12/25 07:39:15;;;;;;;3.75;1.92;;;;;;;22.98;58.87;95269.91;5131214;27;20255;-47
2022/12/25 07:41:43;;;;;;;1.77;1.58;;;;;;;23.11;58.35;95282.16;5133023;27;20341;-46
2022/12/25 07:44:09;;;;;;;1.70;1.60;;;;;;;23.06;58.48;95296.78;5129996;27;20188;-49
2022/12/25 07:46:36;;;;;;;3.53;2.15;;;;;;;22.82;59.42;95298.97;5111563;27;20192;-47
2022/12/25 07:49:05;;;;;;;3.55;1.88;;;;;;;22.54;60.75;95297.31;5130511;27;20191;-47
2022/12/25 07:51:31;;;;;;;2.85;1.90;;;;;;;22.24;61.42;95301.22;5129641;27;20219;-48
2022/12/25 07:53:58;;;;;;;3.10;2.10;;;;;;;21.94;62.13;95306.69;5130065;27;20660;-47
2022/12/25 07:56:25;;;;;;;1.65;1.55;;;;;;;21.66;63.06;95303.31;5129454;27;20266;-48
2022/12/25 07:58:52;;;;;;;3.78;1.80;;;;;;;21.34;63.65;95312.53;5130072;27;20193;-47
2022/12/25 08:01:20;;;;;;;2.00;1.88;;;;;;;20.92;64.42;95288.94;5129276;27;20192;-45
2022/12/25 08:03:50;;;;;;;4.57;2.08;;;;;;;20.86;64.96;95312.28;5129094;27;20189;-47
2022/12/25 08:06:19;;;;;;;4.50;2.05;;;;;;;20.85;64.60;95321.84;5129716;27;20228;-46
2022/12/25 08:08:46;;;;;;;2.35;1.92;;;;;;;20.92;64.01;95322.72;5129641;27;20211;-46
2022/12/25 08:11:13;;;;;;;4.38;2.10;;;;;;;20.72;64.23;95319.94;5129620;27;20192;-47
2022/12/25 08:13:39;;;;;;;3.88;2.00;;;;;;;20.38;64.43;95320.56;5129163;27;20716;-47
2022/12/25 08:16:08;;;;;;;2.30;2.10;;;;;;;20.11;64.74;95322.03;5129268;27;20302;-47
2022/12/25 08:18:36;;;;;;;2.72;2.00;;;;;;;19.87;65.19;95314.53;5129829;27;20299;-45
2022/12/25 08:21:04;;;;;;;2.33;1.90;;;;;;;19.79;65.67;95316.22;5127434;27;20233;-45
2022/12/25 08:23:33;;;;;;;2.30;2.10;;;;;;;19.61;66.25;95320.97;5133040;27;20265;-47
2022/12/25 08:26:01;;;;;;;2.87;2.10;;;;;;;19.24;66.44;95288.84;5133723;27;20227;-47
2022/12/25 08:28:29;;;;;;;5.70;2.37;;;;;;;19.25;67.10;95307.81;5130424;27;20196;-50
2022/12/25 08:30:56;;;;;;;5.97;2.57;;;;;;;19.18;67.19;95305.13;5131266;27;20196;-46
2022/12/25 08:33:23;;;;;;;1.90;1.80;;;;;;;19.27;66.78;95305.88;5130616;27;20676;-48
2022/12/25 08:35:50;;;;;;;2.97;2.00;;;;;;;19.48;66.16;95305.19;5130691;27;20188;-48
2022/12/25 08:38:17;;;;;;;2.27;2.07;;;;;;;19.80;65.05;95306.66;5137736;27;20177;-48
2022/12/25 08:40:45;;;;;;;2.13;1.90;;;;;;;19.88;64.46;95308.34;5140140;27;20212;-47
2022/12/25 08:43:11;;;;;;;3.20;2.07;;;;;;;19.69;64.82;95315.72;5130267;27;20241;-47
2022/12/25 08:45:38;;;;;;;4.87;2.37;;;;;;;19.39;65.33;95324.41;5144287;27;20692;-45
2022/12/25 08:48:05;;;;;;;2.23;2.00;;;;;;;19.09;66.23;95326.94;5128586;27;20232;-49
2022/12/25 08:50:32;;;;;;;2.53;2.33;;;;;;;18.83;66.99;95324.69;5128780;27;20180;-47
2022/12/25 08:52:59;;;;;;;3.30;2.10;;;;;;;18.62;67.72;95317.53;5128519;27;20216;-47
2022/12/25 08:55:25;;;;;;;2.40;2.20;;;;;;;18.45;68.17;95321.19;5132051;27;20184;-46
2022/12/25 08:57:54;;;;;;;2.67;2.17;;;;;;;18.28;68.57;95312.69;5134628;27;20185;-44
2022/12/25 09:00:21;;;;;;;3.13;2.40;;;;;;;18.13;69.14;95322.94;5137755;27;20595;-47
2022/12/25 09:02:47;;;;;;;2.73;1.90;;;;;;;18.00;69.61;95318.34;5136427;27;20183;-47
2022/12/25 09:05:14;;;;;;;2.77;2.10;;;;;;;17.85;69.85;95317.41;5136727;27;20198;-47
2022/12/25 09:07:41;;;;;;;3.07;2.43;;;;;;;17.77;70.25;95323.41;5138479;27;20198;-47
2022/12/25 09:10:09;;;;;;;3.00;2.63;;;;;;;17.61;70.58;95317.44;5133890;27;20180;-45
2022/12/25 09:12:36;;;;;;;2.43;1.90;;;;;;;17.58;70.85;95320.38;5146340;27;20222;-45
2022/12/25 09:15:05;;;;;;;3.97;2.40;;;;;;;17.48;70.94;95326.50;5148781;27;20196;-46
2022/12/25 09:17:33;;;;;;;2.87;2.07;;;;;;;17.40;71.33;95323.13;5144645;27;20188;-44
2022/12/25 09:19:59;;;;;;;4.37;2.37;;;;;;;17.34;71.47;95323.78;5127918;27;20192;-47
2022/12/25 09:22:27;;;;;;;2.93;2.47;;;;;;;17.26;71.58;95320.22;5128029;27;20740;-46
2022/12/25 09:24:54;;;;;;;2.30;2.10;;;;;;;17.21;71.67;95317.34;5128347;27;20643;-50
2022/12/25 09:27:20;;;;;;;2.37;2.17;;;;;;;17.14;71.81;95323.31;5128789;27;20184;-49
2022/12/25 09:29:47;;;;;;;2.30;2.07;;;;;;;17.09;72.04;95321.22;5128171;27;20191;-47
2022/12/25 09:32:15;;;;;;;4.90;2.30;;;;;;;17.04;72.21;95313.16;5128826;27;20227;-49
2022/12/25 09:34:42;;;;;;;3.73;2.50;;;;;;;16.99;72.23;95315.41;5147487;27;20183;-48
2022/12/25 09:37:09;;;;;;;3.27;2.00;;;;;;;16.95;72.23;95316.72;5148736;27;20257;-49
2022/12/25 09:39:36;;;;;;;2.40;2.20;;;;;;;16.92;72.50;95314.44;5134122;27;20224;-46
2022/12/25 09:42:09;;;;;;;2.27;2.07;;;;;;;16.87;72.63;95307.16;5128171;27;20206;-48
2022/12/25 09:44:40;;;;;;;3.37;2.20;;;;;;;16.84;72.96;95310.09;5127842;27;20643;-49
2022/12/25 09:47:13;;;;;;;3.13;2.17;;;;;;;16.79;73.04;95310.56;5127446;27;20200;-48
2022/12/25 09:49:47;;;;;;;2.37;1.77;;;;;;;16.76;73.17;95308.31;5128402;27;20184;-50
2022/12/25 09:52:18;;;;;;;2.40;2.20;;;;;;;16.74;73.46;95309.44;5127816;27;20574;-46
2022/12/25 09:54:53;;;;;;;2.10;2.00;;;;;;;16.71;74.00;95296.78;5128027;28;20184;-47
2022/12/25 09:57:19;;;;;;;2.37;2.10;;;;;;;16.67;74.13;95298.09;5127770;28;20183;-46
2022/12/25 09:59:46;;;;;;;1.97;1.77;;;;;;;16.67;74.12;95293.75;5127124;28;20196;-48
2022/12/25 10:02:36;;;;;;;3.23;2.37;;;;;;;16.68;74.41;95289.38;5127919;28;20196;-48
2022/12/25 10:05:16;;;;;;;2.90;2.07;;;;;;;16.67;74.58;95295.53;5128621;28;20196;-47
2022/12/25 10:07:49;;;;;;;2.27;1.97;;;;;;;16.65;74.71;95290.50;5128194;28;20210;-47
2022/12/25 10:10:36;;;;;;;2.03;1.90;;;;;;;16.59;74.94;95282.59;5127419;28;20188;-47
2022/12/25 10:13:14;;;;;;;3.10;2.00;;;;;;;16.66;74.77;95288.72;5126522;27;20207;-47
2022/12/25 10:15:48;;;;;;;4.13;2.30;;;;;;;16.64;74.97;95286.31;5130270;28;20274;-49
2022/12/25 10:18:34;;;;;;;2.40;2.13;;;;;;;16.58;75.00;95279.22;5129626;28;20652;-47
2022/12/25 10:21:08;;;;;;;2.13;1.93;;;;;;;16.69;74.88;95296.16;5130111;28;20215;-46
2022/12/25 10:23:40;;;;;;;2.93;2.20;;;;;;;16.71;74.74;95289.03;5129618;28;20180;-48
2022/12/25 10:26:15;;;;;;;2.73;1.70;;;;;;;16.73;75.00;95287.16;5130577;28;20301;-47
2022/12/25 10:28:45;;;;;;;2.27;2.10;;;;;;;16.46;74.93;95244.34;5130107;28;20278;-49
2022/12/25 10:31:20;;;;;;;1.87;1.77;;;;;;;16.77;74.77;95288.44;5130392;28;20331;-46
2022/12/25 10:33:48;;;;;;;2.10;1.87;;;;;;;16.78;74.52;95288.28;5129922;28;20314;-49
2022/12/25 10:36:19;;;;;;;2.57;1.97;;;;;;;16.77;74.54;95281.50;5129756;28;20191;-47
2022/12/25 10:38:46;;;;;;;1.87;1.77;;;;;;;16.83;74.50;95287.78;5129225;27;20630;-47
2022/12/25 10:41:26;;;;;;;2.00;1.80;;;;;;;16.75;74.40;95267.13;5132165;27;20180;-47
2022/12/25 10:43:54;;;;;;;1.97;1.87;;;;;;;16.85;74.46;95290.22;5128392;28;20233;-45
2022/12/25 10:46:23;;;;;;;2.10;1.90;;;;;;;16.76;74.40;95268.75;5122797;28;20616;-47
2022/12/25 10:48:54;;;;;;;1.90;1.80;;;;;;;16.88;74.48;95290.72;5128433;28;20189;-47
2022/12/25 10:51:31;;;;;;;1.70;1.60;;;;;;;16.90;74.46;95293.94;5129272;28;20181;-48
2022/12/25 10:53:58;;;;;;;2.27;2.07;;;;;;;16.90;74.30;95293.13;5129964;28;20203;-50
2022/12/25 10:56:24;;;;;;;2.17;2.00;;;;;;;16.89;74.40;95288.94;5129951;28;20204;-47
2022/12/25 10:58:51;;;;;;;2.50;2.03;;;;;;;16.88;74.23;95288.13;5129583;27;20225;-48
2022/12/25 11:01:18;;;;;;;1.57;1.47;;;;;;;16.90;74.06;95283.59;5132939;27;20196;-46
2022/12/25 11:03:51;;;;;;;1.77;1.67;;;;;;;16.91;73.75;95281.81;5133180;27;20664;-47
2022/12/25 11:06:24;;;;;;;2.70;2.03;;;;;;;16.92;73.71;95286.00;5132744;27;20188;-49
2022/12/25 11:08:55;;;;;;;2.30;2.10;;;;;;;16.93;74.05;95288.47;5131803;27;20248;-51
2022/12/25 11:11:22;;;;;;;1.90;1.80;;;;;;;16.80;74.21;95264.88;5133127;27;20211;-50
2022/12/25 11:13:52;;;;;;;1.80;1.70;;;;;;;16.83;74.41;95269.72;5133389;27;20220;-47
2022/12/25 11:16:30;;;;;;;2.40;2.20;;;;;;;16.99;74.80;95287.00;5133178;27;20195;-47
2022/12/25 11:18:59;;;;;;;2.20;2.00;;;;;;;16.99;74.80;95287.00;5133270;27;20176;-48
2022/12/25 11:21:27;;;;;;;1.87;1.77;;;;;;;17.01;74.77;95285.03;5133359;27;20189;-47
2022/12/25 11:24:01;;;;;;;2.17;1.83;;;;;;;17.02;75.00;95284.09;5132951;27;20798;-47
2022/12/25 11:26:32;;;;;;;3.27;2.10;;;;;;;17.01;75.15;95282.44;5133917;27;20184;-46
2022/12/25 11:28:59;;;;;;;1.80;1.70;;;;;;;17.05;75.16;95286.31;5133004;27;20187;-46
2022/12/25 11:31:36;;;;;;;2.07;1.87;;;;;;;17.07;75.37;95288.78;5132931;27;20199;-47
2022/12/25 11:34:07;;;;;;;1.83;1.70;;;;;;;17.03;75.31;95283.13;5132738;27;20220;-45
2022/12/25 11:36:44;;;;;;;2.10;2.00;;;;;;;17.09;75.68;95282.44;5133095;27;20189;-49
2022/12/25 11:39:21;;;;;;;2.30;2.07;;;;;;;17.09;75.79;95291.97;5132395;27;20270;-47
2022/12/25 11:41:49;;;;;;;1.90;1.80;;;;;;;17.11;75.65;95290.88;5132190;27;20192;-46
2022/12/25 11:44:27;;;;;;;2.23;2.03;;;;;;;17.12;75.87;95295.06;5132976;27;20200;-47
2022/12/25 11:46:56;;;;;;;1.87;1.77;;;;;;;17.12;75.57;95296.84;5133001;27;20188;-46
2022/12/25 11:49:23;;;;;;;1.70;1.60;;;;;;;17.05;75.54;95273.41;5133499;27;20203;-47
2022/12/25 11:51:55;;;;;;;2.27;1.80;;;;;;;17.05;75.68;95278.56;5132806;27;20192;-45
2022/12/25 11:54:28;;;;;;;2.37;2.17;;;;;;;17.00;75.66;95279.06;5134227;27;20215;-47
2022/12/25 11:56:57;;;;;;;1.70;1.60;;;;;;;17.12;75.57;95289.09;5132355;27;20646;-51
2022/12/25 11:59:30;;;;;;;1.83;1.63;;;;;;;17.10;75.58;95294.44;5133664;27;20192;-46
2022/12/25 12:02:02;;;;;;;1.87;1.70;;;;;;;17.10;75.55;95289.25;5133087;27;20188;-50
2022/12/25 12:04:32;;;;;;;2.00;1.90;;;;;;;17.09;75.57;95290.19;5132985;27;20199;-47
2022/12/25 12:07:05;;;;;;;2.07;1.90;;;;;;;17.09;75.59;95303.13;5132423;27;20253;-50
2022/12/25 12:09:44;;;;;;;1.97;1.80;;;;;;;17.08;75.52;95295.56;5132554;27;20203;-47
2022/12/25 12:12:18;;;;;;;2.00;1.80;;;;;;;17.06;75.46;95300.88;5131862;27;20196;-49
2022/12/25 12:14:55;;;;;;;2.00;1.90;;;;;;;17.02;75.58;95287.47;5132880;27;20231;-47
2022/12/25 12:17:22;;;;;;;2.50;1.80;;;;;;;17.04;75.61;95295.88;5132231;27;20192;-49
2022/12/25 12:19:49;;;;;;;2.00;1.90;;;;;;;17.03;75.81;95301.22;5132289;27;20182;-47
2022/12/25 12:22:21;;;;;;;1.97;1.70;;;;;;;16.99;75.71;95292.97;5131597;27;20187;-48
2022/12/25 12:24:55;;;;;;;1.97;1.87;;;;;;;17.01;75.84;95300.53;5132675;27;20180;-52
2022/12/25 12:27:26;;;;;;;3.10;1.60;;;;;;;16.98;75.99;95301.69;5131878;27;20612;-53
2022/12/25 12:29:56;;;;;;;1.83;1.63;;;;;;;16.98;75.92;95306.88;5132218;27;20279;-49
2022/12/25 12:32:35;;;;;;;3.47;2.10;;;;;;;16.76;75.94;95272.16;5131304;27;20655;-47
2022/12/25 12:35:09;;;;;;;1.70;1.60;;;;;;;16.95;75.90;95312.34;5131662;27;20192;-48
2022/12/25 12:37:39;;;;;;;1.97;1.77;;;;;;;16.87;76.07;95302.00;5113595;27;20180;-48
2022/12/25 12:40:24;;;;;;;1.97;1.77;;;;;;;16.92;76.22;95312.66;5132030;27;20248;-48
2022/12/25 12:42:51;;;;;;;1.77;1.67;;;;;;;16.91;76.30;95310.25;5131844;27;20198;-51
2022/12/25 12:45:20;;;;;;;1.80;1.70;;;;;;;16.90;76.44;95311.22;5131788;27;20287;-48
2022/12/25 12:47:49;;;;;;;1.97;1.87;;;;;;;16.89;76.24;95314.78;5132069;27;20662;-48
2022/12/25 12:50:32;;;;;;;2.60;1.77;;;;;;;16.87;76.40;95320.09;5131975;27;20184;-49
2022/12/25 12:52:59;;;;;;;1.87;1.77;;;;;;;16.85;76.28;95326.41;5131539;27;20632;-49
2022/12/25 12:55:34;;;;;;;1.87;1.77;;;;;;;16.82;76.33;95316.38;5131196;27;20192;-50
2022/12/25 12:58:02;;;;;;;1.90;1.70;;;;;;;16.82;76.31;95329.28;5131516;27;20180;-53
2022/12/25 13:00:41;;;;;;;2.13;1.80;;;;;;;16.79;76.53;95323.47;5131419;27;20581;-47
2022/12/25 13:03:23;;;;;;;3.13;2.00;;;;;;;16.77;76.37;95316.88;5130851;27;20264;-48
2022/12/25 13:05:54;;;;;;;2.50;1.97;;;;;;;16.74;76.62;95328.31;5131090;27;20180;-50
2022/12/25 13:08:34;;;;;;;1.90;1.80;;;;;;;16.73;76.38;95323.31;5131322;27;20180;-51
2022/12/25 13:11:14;;;;;;;2.50;1.57;;;;;;;16.64;76.55;95313.91;5130875;27;20191;-52
2022/12/25 13:13:44;;;;;;;2.33;2.10;;;;;;;16.48;76.58;95289.66;5131470;27;20204;-53
2022/12/25 13:16:19;;;;;;;2.80;2.20;;;;;;;16.64;76.64;95321.66;5131151;27;20579;-48
2022/12/25 13:18:46;;;;;;;3.60;1.83;;;;;;;16.61;76.78;95321.97;5131250;27;20282;-51
2022/12/25 13:21:19;;;;;;;2.00;1.90;;;;;;;16.58;77.06;95315.38;5131013;27;20180;-54
2022/12/25 13:23:46;;;;;;;1.90;1.80;;;;;;;16.54;77.09;95314.88;5131216;27;20188;-46
2022/12/25 13:26:17;;;;;;;1.73;1.63;;;;;;;16.52;77.25;95319.38;5130956;27;20256;-50
2022/12/25 13:28:46;;;;;;;1.83;1.60;;;;;;;16.46;77.32;95309.69;5131374;27;20192;-50
2022/12/25 13:31:17;;;;;;;1.70;1.60;;;;;;;16.37;77.45;95317.59;5130706;27;20177;-52